San Fernando de Henares, Spain
Current Conditions -  °F | °C
As of 3:00 PM on Tuesday 21 Oct 2014 (Local Time) from LEMD Reporting Station
Clear Clear  
Wind Chill: 82°   Ceiling: Unl
Heat Index: 82°   Visibility: 6mi
Dew Point: 50°   Wind: 2mph
Humidity: 32%   Direction: NA
Pressure: 30.33"   Gusts: NA
Location:  40.42°N, 3.53°W
Report Text: LEMD 211300Z VRB02KT CAVOK 28/10 Q1027 NOSIG
Loading
Personal Weather Stations






























Interactive Weather Map
Tropical Storm Tracking
New forecast layout! Learn more

10-Day Weather Forecast

Advertisements
Track Severe Weather on mobile